sensor_id;sensor_type;location;lat;lon;timestamp;temperature;humidity
33655;DHT22;19997;51.274;22.506;2023-01-26T00:02:25;4.30;93.50
33655;DHT22;19997;51.274;22.506;2023-01-26T00:04:53;4.30;93.40
33655;DHT22;19997;51.274;22.506;2023-01-26T00:07:20;4.30;93.30
33655;DHT22;19997;51.274;22.506;2023-01-26T00:09:47;4.30;93.30
33655;DHT22;19997;51.274;22.506;2023-01-26T00:12:15;4.30;93.20
33655;DHT22;19997;51.274;22.506;2023-01-26T00:14:42;4.30;93.00
33655;DHT22;19997;51.274;22.506;2023-01-26T00:17:17;4.30;92.90
33655;DHT22;19997;51.274;22.506;2023-01-26T00:19:57;4.20;92.90
33655;DHT22;19997;51.274;22.506;2023-01-26T00:22:25;4.20;92.80
33655;DHT22;19997;51.274;22.506;2023-01-26T00:24:53;4.20;92.80
33655;DHT22;19997;51.274;22.506;2023-01-26T00:27:21;4.20;92.70
33655;DHT22;19997;51.274;22.506;2023-01-26T00:29:48;4.30;92.60
33655;DHT22;19997;51.274;22.506;2023-01-26T00:32:15;4.20;92.50
33655;DHT22;19997;51.274;22.506;2023-01-26T00:34:42;4.20;92.50
33655;DHT22;19997;51.274;22.506;2023-01-26T00:37:10;4.20;92.40
33655;DHT22;19997;51.274;22.506;2023-01-26T00:39:37;4.20;92.40
33655;DHT22;19997;51.274;22.506;2023-01-26T00:42:04;4.20;92.30
33655;DHT22;19997;51.274;22.506;2023-01-26T00:44:41;4.20;92.30
33655;DHT22;19997;51.274;22.506;2023-01-26T00:47:09;4.20;92.10
33655;DHT22;19997;51.274;22.506;2023-01-26T00:49:37;4.20;92.10
33655;DHT22;19997;51.274;22.506;2023-01-26T00:52:04;4.10;92.00
33655;DHT22;19997;51.274;22.506;2023-01-26T00:54:32;4.10;92.00
33655;DHT22;19997;51.274;22.506;2023-01-26T00:56:59;4.10;91.80
33655;DHT22;19997;51.274;22.506;2023-01-26T00:59:26;4.00;91.70
33655;DHT22;19997;51.274;22.506;2023-01-26T01:01:55;4.00;91.60
33655;DHT22;19997;51.274;22.506;2023-01-26T01:04:22;4.00;91.70
33655;DHT22;19997;51.274;22.506;2023-01-26T01:06:50;4.00;91.70
33655;DHT22;19997;51.274;22.506;2023-01-26T01:09:17;4.00;91.70
33655;DHT22;19997;51.274;22.506;2023-01-26T01:11:44;4.00;91.50
33655;DHT22;19997;51.274;22.506;2023-01-26T01:14:13;4.00;91.60
33655;DHT22;19997;51.274;22.506;2023-01-26T01:16:41;4.00;91.60
33655;DHT22;19997;51.274;22.506;2023-01-26T01:19:13;4.00;91.50
33655;DHT22;19997;51.274;22.506;2023-01-26T01:21:41;4.00;91.40
33655;DHT22;19997;51.274;22.506;2023-01-26T01:24:09;4.00;91.50
33655;DHT22;19997;51.274;22.506;2023-01-26T01:26:37;4.00;91.50
33655;DHT22;19997;51.274;22.506;2023-01-26T01:29:05;4.00;91.40
33655;DHT22;19997;51.274;22.506;2023-01-26T01:31:32;4.00;91.40
33655;DHT22;19997;51.274;22.506;2023-01-26T01:33:59;4.00;91.40
33655;DHT22;19997;51.274;22.506;2023-01-26T01:36:28;4.00;91.30
33655;DHT22;19997;51.274;22.506;2023-01-26T01:38:56;4.00;91.30
33655;DHT22;19997;51.274;22.506;2023-01-26T01:41:23;4.00;91.20
33655;DHT22;19997;51.274;22.506;2023-01-26T01:46:34;4.00;91.10
33655;DHT22;19997;51.274;22.506;2023-01-26T01:49:06;3.90;90.90
33655;DHT22;19997;51.274;22.506;2023-01-26T01:51:44;3.90;90.90
33655;DHT22;19997;51.274;22.506;2023-01-26T01:54:15;3.90;90.90
33655;DHT22;19997;51.274;22.506;2023-01-26T01:56:46;3.90;90.90
33655;DHT22;19997;51.274;22.506;2023-01-26T01:59:14;3.80;90.90
33655;DHT22;19997;51.274;22.506;2023-01-26T02:01:44;3.80;91.00
33655;DHT22;19997;51.274;22.506;2023-01-26T02:04:12;3.90;90.70
33655;DHT22;19997;51.274;22.506;2023-01-26T02:06:47;3.80;90.60
33655;DHT22;19997;51.274;22.506;2023-01-26T02:09:16;3.80;90.70
33655;DHT22;19997;51.274;22.506;2023-01-26T02:11:58;3.80;90.70
33655;DHT22;19997;51.274;22.506;2023-01-26T02:14:27;3.80;90.80
33655;DHT22;19997;51.274;22.506;2023-01-26T02:16:55;3.80;90.70
33655;DHT22;19997;51.274;22.506;2023-01-26T02:19:27;3.80;90.70
33655;DHT22;19997;51.274;22.506;2023-01-26T02:22:05;3.80;90.60
33655;DHT22;19997;51.274;22.506;2023-01-26T02:24:36;3.80;90.60
33655;DHT22;19997;51.274;22.506;2023-01-26T02:27:06;3.80;90.70
33655;DHT22;19997;51.274;22.506;2023-01-26T02:29:33;3.80;90.70
33655;DHT22;19997;51.274;22.506;2023-01-26T02:32:01;3.80;90.70
33655;DHT22;19997;51.274;22.506;2023-01-26T02:34:28;3.80;90.60
33655;DHT22;19997;51.274;22.506;2023-01-26T02:36:56;3.80;90.50
33655;DHT22;19997;51.274;22.506;2023-01-26T02:39:37;3.80;90.40
33655;DHT22;19997;51.274;22.506;2023-01-26T02:42:08;3.80;90.40
33655;DHT22;19997;51.274;22.506;2023-01-26T02:44:59;3.80;90.40
33655;DHT22;19997;51.274;22.506;2023-01-26T02:47:27;3.80;90.30
33655;DHT22;19997;51.274;22.506;2023-01-26T02:49:54;3.80;90.10
33655;DHT22;19997;51.274;22.506;2023-01-26T02:52:24;3.80;90.00
33655;DHT22;19997;51.274;22.506;2023-01-26T02:54:57;3.70;90.00
33655;DHT22;19997;51.274;22.506;2023-01-26T02:57:44;3.70;89.90
33655;DHT22;19997;51.274;22.506;2023-01-26T03:00:13;3.70;89.50
33655;DHT22;19997;51.274;22.506;2023-01-26T03:02:41;3.70;89.50
33655;DHT22;19997;51.274;22.506;2023-01-26T03:05:09;3.70;89.40
33655;DHT22;19997;51.274;22.506;2023-01-26T03:07:36;3.70;89.30
33655;DHT22;19997;51.274;22.506;2023-01-26T03:10:04;3.70;89.20
33655;DHT22;19997;51.274;22.506;2023-01-26T03:12:33;3.70;89.00
33655;DHT22;19997;51.274;22.506;2023-01-26T03:15:02;3.70;88.90
33655;DHT22;19997;51.274;22.506;2023-01-26T03:17:46;3.60;88.20
33655;DHT22;19997;51.274;22.506;2023-01-26T03:20:13;3.60;88.20
33655;DHT22;19997;51.274;22.506;2023-01-26T03:23:03;3.60;88.50
33655;DHT22;19997;51.274;22.506;2023-01-26T03:25:52;3.60;88.60
33655;DHT22;19997;51.274;22.506;2023-01-26T03:28:36;3.70;88.70
33655;DHT22;19997;51.274;22.506;2023-01-26T03:31:05;3.70;88.70
33655;DHT22;19997;51.274;22.506;2023-01-26T03:33:33;3.70;88.60
33655;DHT22;19997;51.274;22.506;2023-01-26T03:36:00;3.70;88.60
33655;DHT22;19997;51.274;22.506;2023-01-26T03:38:28;3.70;88.60
33655;DHT22;19997;51.274;22.506;2023-01-26T03:40:57;3.70;88.40
33655;DHT22;19997;51.274;22.506;2023-01-26T03:43:42;3.70;88.40
33655;DHT22;19997;51.274;22.506;2023-01-26T03:46:27;3.70;88.30
33655;DHT22;19997;51.274;22.506;2023-01-26T03:49:13;3.70;88.40
33655;DHT22;19997;51.274;22.506;2023-01-26T03:51:58;3.70;88.50
33655;DHT22;19997;51.274;22.506;2023-01-26T03:54:42;3.70;88.40
33655;DHT22;19997;51.274;22.506;2023-01-26T03:57:28;3.60;88.30
33655;DHT22;19997;51.274;22.506;2023-01-26T03:59:55;3.60;88.30
33655;DHT22;19997;51.274;22.506;2023-01-26T04:02:26;3.70;88.40
33655;DHT22;19997;51.274;22.506;2023-01-26T04:05:11;3.70;88.30
33655;DHT22;19997;51.274;22.506;2023-01-26T04:08:01;3.60;88.30
33655;DHT22;19997;51.274;22.506;2023-01-26T04:10:48;3.70;88.30
33655;DHT22;19997;51.274;22.506;2023-01-26T04:13:16;3.60;88.00
33655;DHT22;19997;51.274;22.506;2023-01-26T04:16:07;3.70;88.20
33655;DHT22;19997;51.274;22.506;2023-01-26T04:18:53;3.60;88.10
33655;DHT22;19997;51.274;22.506;2023-01-26T04:21:38;3.60;88.10
33655;DHT22;19997;51.274;22.506;2023-01-26T04:24:14;3.60;88.00
33655;DHT22;19997;51.274;22.506;2023-01-26T04:26:42;3.60;87.90
33655;DHT22;19997;51.274;22.506;2023-01-26T04:29:14;3.60;87.90
33655;DHT22;19997;51.274;22.506;2023-01-26T04:31:43;3.60;88.00
33655;DHT22;19997;51.274;22.506;2023-01-26T04:34:13;3.60;88.00
33655;DHT22;19997;51.274;22.506;2023-01-26T04:36:41;3.60;88.00
33655;DHT22;19997;51.274;22.506;2023-01-26T04:39:08;3.60;87.80
33655;DHT22;19997;51.274;22.506;2023-01-26T04:41:38;3.60;87.90
33655;DHT22;19997;51.274;22.506;2023-01-26T04:44:08;3.60;87.90
33655;DHT22;19997;51.274;22.506;2023-01-26T04:46:36;3.60;88.00
33655;DHT22;19997;51.274;22.506;2023-01-26T04:49:03;3.60;88.00
33655;DHT22;19997;51.274;22.506;2023-01-26T04:51:34;3.60;87.90
33655;DHT22;19997;51.274;22.506;2023-01-26T04:54:01;3.60;87.90
33655;DHT22;19997;51.274;22.506;2023-01-26T04:56:31;3.60;88.00
33655;DHT22;19997;51.274;22.506;2023-01-26T04:59:03;3.60;87.90
33655;DHT22;19997;51.274;22.506;2023-01-26T05:01:32;3.60;87.90
33655;DHT22;19997;51.274;22.506;2023-01-26T05:04:03;3.60;87.70
33655;DHT22;19997;51.274;22.506;2023-01-26T05:06:33;3.60;87.70
33655;DHT22;19997;51.274;22.506;2023-01-26T05:09:00;3.50;87.60
33655;DHT22;19997;51.274;22.506;2023-01-26T05:11:28;3.60;87.50
33655;DHT22;19997;51.274;22.506;2023-01-26T05:14:34;3.50;87.60
33655;DHT22;19997;51.274;22.506;2023-01-26T05:17:09;3.50;87.20
33655;DHT22;19997;51.274;22.506;2023-01-26T05:19:45;3.50;87.30
33655;DHT22;19997;51.274;22.506;2023-01-26T05:22:28;3.50;87.20
33655;DHT22;19997;51.274;22.506;2023-01-26T05:25:14;3.40;87.30
33655;DHT22;19997;51.274;22.506;2023-01-26T05:27:50;3.40;87.40
33655;DHT22;19997;51.274;22.506;2023-01-26T05:30:19;3.40;87.50
33655;DHT22;19997;51.274;22.506;2023-01-26T05:32:47;3.40;87.40
33655;DHT22;19997;51.274;22.506;2023-01-26T05:35:14;3.30;87.20
33655;DHT22;19997;51.274;22.506;2023-01-26T05:37:43;3.30;87.50
33655;DHT22;19997;51.274;22.506;2023-01-26T05:40:12;3.30;87.60
33655;DHT22;19997;51.274;22.506;2023-01-26T05:42:41;3.30;87.70
33655;DHT22;19997;51.274;22.506;2023-01-26T05:45:29;3.30;87.70
33655;DHT22;19997;51.274;22.506;2023-01-26T05:47:59;3.30;87.60
33655;DHT22;19997;51.274;22.506;2023-01-26T05:50:26;3.30;87.60
33655;DHT22;19997;51.274;22.506;2023-01-26T05:53:13;3.30;87.30
33655;DHT22;19997;51.274;22.506;2023-01-26T05:55:40;3.30;87.50
33655;DHT22;19997;51.274;22.506;2023-01-26T05:58:11;3.30;87.60
33655;DHT22;19997;51.274;22.506;2023-01-26T06:00:39;3.20;87.40
33655;DHT22;19997;51.274;22.506;2023-01-26T06:03:11;3.20;87.60
33655;DHT22;19997;51.274;22.506;2023-01-26T06:05:38;3.20;87.30
33655;DHT22;19997;51.274;22.506;2023-01-26T06:08:23;3.20;87.50
33655;DHT22;19997;51.274;22.506;2023-01-26T06:11:10;3.20;87.40
33655;DHT22;19997;51.274;22.506;2023-01-26T06:13:46;3.20;87.40
33655;DHT22;19997;51.274;22.506;2023-01-26T06:16:22;3.20;87.10
33655;DHT22;19997;51.274;22.506;2023-01-26T06:18:49;3.10;87.00
33655;DHT22;19997;51.274;22.506;2023-01-26T06:21:17;3.10;87.00
33655;DHT22;19997;51.274;22.506;2023-01-26T06:23:46;3.10;86.90
33655;DHT22;19997;51.274;22.506;2023-01-26T06:26:40;3.10;86.90
33655;DHT22;19997;51.274;22.506;2023-01-26T06:29:37;3.10;86.90
33655;DHT22;19997;51.274;22.506;2023-01-26T06:32:09;3.10;86.70
33655;DHT22;19997;51.274;22.506;2023-01-26T06:34:37;3.00;86.10
33655;DHT22;19997;51.274;22.506;2023-01-26T06:37:04;3.00;86.40
33655;DHT22;19997;51.274;22.506;2023-01-26T06:39:36;3.00;85.90
33655;DHT22;19997;51.274;22.506;2023-01-26T06:42:07;3.00;86.20
33655;DHT22;19997;51.274;22.506;2023-01-26T06:44:34;3.00;86.20
33655;DHT22;19997;51.274;22.506;2023-01-26T06:47:02;3.00;86.00
33655;DHT22;19997;51.274;22.506;2023-01-26T06:49:29;2.90;85.80
33655;DHT22;19997;51.274;22.506;2023-01-26T06:51:58;2.90;86.10
33655;DHT22;19997;51.274;22.506;2023-01-26T06:54:42;2.90;85.40
33655;DHT22;19997;51.274;22.506;2023-01-26T06:57:32;2.90;85.60
33655;DHT22;19997;51.274;22.506;2023-01-26T07:00:10;2.90;85.70
33655;DHT22;19997;51.274;22.506;2023-01-26T07:02:52;2.90;85.40
33655;DHT22;19997;51.274;22.506;2023-01-26T07:05:19;2.90;85.20
33655;DHT22;19997;51.274;22.506;2023-01-26T07:07:46;2.90;85.30
33655;DHT22;19997;51.274;22.506;2023-01-26T07:10:15;2.90;85.40
33655;DHT22;19997;51.274;22.506;2023-01-26T07:12:44;2.90;85.40
33655;DHT22;19997;51.274;22.506;2023-01-26T07:15:12;3.00;85.50
33655;DHT22;19997;51.274;22.506;2023-01-26T07:17:39;3.00;85.60
33655;DHT22;19997;51.274;22.506;2023-01-26T07:20:07;3.00;85.40
33655;DHT22;19997;51.274;22.506;2023-01-26T07:22:34;3.10;85.10
33655;DHT22;19997;51.274;22.506;2023-01-26T07:25:01;3.00;84.90
33655;DHT22;19997;51.274;22.506;2023-01-26T07:27:29;3.10;84.70
33655;DHT22;19997;51.274;22.506;2023-01-26T07:29:56;3.00;84.90
33655;DHT22;19997;51.274;22.506;2023-01-26T07:32:24;3.00;84.80
33655;DHT22;19997;51.274;22.506;2023-01-26T07:34:51;3.10;84.90
33655;DHT22;19997;51.274;22.506;2023-01-26T07:37:18;3.10;85.00
33655;DHT22;19997;51.274;22.506;2023-01-26T07:39:45;3.10;84.90
33655;DHT22;19997;51.274;22.506;2023-01-26T07:42:13;3.20;84.70
33655;DHT22;19997;51.274;22.506;2023-01-26T07:44:58;3.10;84.50
33655;DHT22;19997;51.274;22.506;2023-01-26T07:47:26;3.20;84.40
33655;DHT22;19997;51.274;22.506;2023-01-26T07:49:53;3.10;84.10
33655;DHT22;19997;51.274;22.506;2023-01-26T07:52:20;3.10;85.00
33655;DHT22;19997;51.274;22.506;2023-01-26T07:54:47;3.10;84.20
33655;DHT22;19997;51.274;22.506;2023-01-26T07:57:15;3.20;84.10
33655;DHT22;19997;51.274;22.506;2023-01-26T07:59:42;3.10;83.90
33655;DHT22;19997;51.274;22.506;2023-01-26T08:02:10;3.20;84.10
33655;DHT22;19997;51.274;22.506;2023-01-26T08:04:37;3.20;84.00
33655;DHT22;19997;51.274;22.506;2023-01-26T08:07:04;3.20;83.50
33655;DHT22;19997;51.274;22.506;2023-01-26T08:09:31;3.30;83.50
33655;DHT22;19997;51.274;22.506;2023-01-26T08:11:58;3.30;83.60
33655;DHT22;19997;51.274;22.506;2023-01-26T08:14:26;3.30;83.20
33655;DHT22;19997;51.274;22.506;2023-01-26T08:16:53;3.30;83.20
33655;DHT22;19997;51.274;22.506;2023-01-26T08:19:21;3.30;83.40
33655;DHT22;19997;51.274;22.506;2023-01-26T08:21:48;3.40;82.90
33655;DHT22;19997;51.274;22.506;2023-01-26T08:24:16;3.40;83.20
33655;DHT22;19997;51.274;22.506;2023-01-26T08:26:43;3.40;83.00
33655;DHT22;19997;51.274;22.506;2023-01-26T08:29:11;3.40;82.60
33655;DHT22;19997;51.274;22.506;2023-01-26T08:31:37;3.40;82.90
33655;DHT22;19997;51.274;22.506;2023-01-26T08:34:05;3.40;82.10
33655;DHT22;19997;51.274;22.506;2023-01-26T08:36:33;3.40;82.50
33655;DHT22;19997;51.274;22.506;2023-01-26T08:39:00;3.40;82.70
33655;DHT22;19997;51.274;22.506;2023-01-26T08:41:27;3.50;82.80
33655;DHT22;19997;51.274;22.506;2023-01-26T08:43:56;3.50;82.80
33655;DHT22;19997;51.274;22.506;2023-01-26T08:46:24;3.50;82.70
33655;DHT22;19997;51.274;22.506;2023-01-26T08:48:51;3.60;82.80
33655;DHT22;19997;51.274;22.506;2023-01-26T08:51:19;3.60;82.40
33655;DHT22;19997;51.274;22.506;2023-01-26T08:53:47;3.60;82.60
33655;DHT22;19997;51.274;22.506;2023-01-26T08:56:14;3.60;82.70
33655;DHT22;19997;51.274;22.506;2023-01-26T08:58:41;3.70;82.70
33655;DHT22;19997;51.274;22.506;2023-01-26T09:01:11;3.70;82.30
33655;DHT22;19997;51.274;22.506;2023-01-26T09:03:39;3.70;82.00
33655;DHT22;19997;51.274;22.506;2023-01-26T09:06:08;3.70;81.60
33655;DHT22;19997;51.274;22.506;2023-01-26T09:08:36;3.80;81.80
33655;DHT22;19997;51.274;22.506;2023-01-26T09:11:06;3.80;81.60
33655;DHT22;19997;51.274;22.506;2023-01-26T09:13:33;3.80;81.70
33655;DHT22;19997;51.274;22.506;2023-01-26T09:16:02;3.90;81.40
33655;DHT22;19997;51.274;22.506;2023-01-26T09:18:29;3.90;81.50
33655;DHT22;19997;51.274;22.506;2023-01-26T09:21:01;4.00;81.30
33655;DHT22;19997;51.274;22.506;2023-01-26T09:23:31;4.00;81.20
33655;DHT22;19997;51.274;22.506;2023-01-26T09:25:58;4.00;81.00
33655;DHT22;19997;51.274;22.506;2023-01-26T09:28:26;4.00;80.60
33655;DHT22;19997;51.274;22.506;2023-01-26T09:30:53;4.00;80.40
33655;DHT22;19997;51.274;22.506;2023-01-26T09:33:21;4.00;80.30
33655;DHT22;19997;51.274;22.506;2023-01-26T09:35:48;3.90;80.10
33655;DHT22;19997;51.274;22.506;2023-01-26T09:38:15;3.90;80.00
33655;DHT22;19997;51.274;22.506;2023-01-26T09:40:47;3.90;80.30
33655;DHT22;19997;51.274;22.506;2023-01-26T09:43:27;3.90;80.50
33655;DHT22;19997;51.274;22.506;2023-01-26T09:46:03;3.90;80.90
33655;DHT22;19997;51.274;22.506;2023-01-26T09:48:41;3.90;81.20
33655;DHT22;19997;51.274;22.506;2023-01-26T09:51:12;4.00;81.20
33655;DHT22;19997;51.274;22.506;2023-01-26T09:53:46;4.00;81.00
33655;DHT22;19997;51.274;22.506;2023-01-26T09:56:33;4.00;80.90
33655;DHT22;19997;51.274;22.506;2023-01-26T09:59:04;4.10;80.20
33655;DHT22;19997;51.274;22.506;2023-01-26T10:01:41;4.10;80.70
33655;DHT22;19997;51.274;22.506;2023-01-26T10:04:16;4.10;80.30
33655;DHT22;19997;51.274;22.506;2023-01-26T10:06:45;4.20;80.60
33655;DHT22;19997;51.274;22.506;2023-01-26T10:09:22;4.20;80.10
33655;DHT22;19997;51.274;22.506;2023-01-26T10:11:53;4.20;80.10
33655;DHT22;19997;51.274;22.506;2023-01-26T10:14:32;4.30;80.00
33655;DHT22;19997;51.274;22.506;2023-01-26T10:17:01;4.30;79.60
33655;DHT22;19997;51.274;22.506;2023-01-26T10:19:33;4.40;79.00
33655;DHT22;19997;51.274;22.506;2023-01-26T10:22:05;4.40;79.20
33655;DHT22;19997;51.274;22.506;2023-01-26T10:24:33;4.50;79.20
33655;DHT22;19997;51.274;22.506;2023-01-26T10:27:00;4.50;79.20
33655;DHT22;19997;51.274;22.506;2023-01-26T10:29:29;4.60;79.10
33655;DHT22;19997;51.274;22.506;2023-01-26T10:31:56;4.60;79.10
33655;DHT22;19997;51.274;22.506;2023-01-26T10:34:24;4.70;79.10
33655;DHT22;19997;51.274;22.506;2023-01-26T10:36:55;4.70;79.00
33655;DHT22;19997;51.274;22.506;2023-01-26T10:39:25;4.80;78.80
33655;DHT22;19997;51.274;22.506;2023-01-26T10:41:57;4.90;78.80
33655;DHT22;19997;51.274;22.506;2023-01-26T10:44:32;4.90;78.70
33655;DHT22;19997;51.274;22.506;2023-01-26T10:47:05;4.90;78.60
33655;DHT22;19997;51.274;22.506;2023-01-26T10:49:32;5.00;78.70
33655;DHT22;19997;51.274;22.506;2023-01-26T10:52:13;5.00;78.50
33655;DHT22;19997;51.274;22.506;2023-01-26T10:54:41;5.10;78.40
33655;DHT22;19997;51.274;22.506;2023-01-26T10:57:18;5.10;77.70
33655;DHT22;19997;51.274;22.506;2023-01-26T10:59:52;5.10;78.00
33655;DHT22;19997;51.274;22.506;2023-01-26T11:02:23;5.10;78.10
33655;DHT22;19997;51.274;22.506;2023-01-26T11:05:17;5.10;78.00
33655;DHT22;19997;51.274;22.506;2023-01-26T11:07:45;5.10;77.70
33655;DHT22;19997;51.274;22.506;2023-01-26T11:10:22;5.10;77.90
33655;DHT22;19997;51.274;22.506;2023-01-26T11:12:50;5.10;77.90
33655;DHT22;19997;51.274;22.506;2023-01-26T11:15:21;5.10;77.50
33655;DHT22;19997;51.274;22.506;2023-01-26T11:17:53;5.10;77.60
33655;DHT22;19997;51.274;22.506;2023-01-26T11:20:40;5.10;77.60
33655;DHT22;19997;51.274;22.506;2023-01-26T11:23:14;5.10;77.60
33655;DHT22;19997;51.274;22.506;2023-01-26T11:26:04;5.10;77.60
33655;DHT22;19997;51.274;22.506;2023-01-26T11:28:43;5.10;77.60
33655;DHT22;19997;51.274;22.506;2023-01-26T11:31:25;5.00;77.40
33655;DHT22;19997;51.274;22.506;2023-01-26T11:34:04;5.00;77.70
33655;DHT22;19997;51.274;22.506;2023-01-26T11:36:40;5.00;77.60
33655;DHT22;19997;51.274;22.506;2023-01-26T11:39:16;4.90;77.20
33655;DHT22;19997;51.274;22.506;2023-01-26T11:41:55;4.90;77.40
33655;DHT22;19997;51.274;22.506;2023-01-26T11:47:34;4.90;77.60
33655;DHT22;19997;51.274;22.506;2023-01-26T11:50:27;4.90;77.40
33655;DHT22;19997;51.274;22.506;2023-01-26T11:53:23;4.90;77.00
33655;DHT22;19997;51.274;22.506;2023-01-26T11:56:12;4.90;77.40
33655;DHT22;19997;51.274;22.506;2023-01-26T11:58:47;4.90;77.20
33655;DHT22;19997;51.274;22.506;2023-01-26T12:01:18;4.90;77.30
33655;DHT22;19997;51.274;22.506;2023-01-26T12:03:49;5.00;77.40
33655;DHT22;19997;51.274;22.506;2023-01-26T12:06:18;5.10;77.30
33655;DHT22;19997;51.274;22.506;2023-01-26T12:08:50;5.10;77.10
33655;DHT22;19997;51.274;22.506;2023-01-26T12:11:23;5.20;77.40
33655;DHT22;19997;51.274;22.506;2023-01-26T12:14:09;5.30;77.40
33655;DHT22;19997;51.274;22.506;2023-01-26T12:16:46;5.50;76.90
33655;DHT22;19997;51.274;22.506;2023-01-26T12:19:31;5.50;76.80
33655;DHT22;19997;51.274;22.506;2023-01-26T12:22:05;5.60;76.40
33655;DHT22;19997;51.274;22.506;2023-01-26T12:24:39;5.60;76.40
33655;DHT22;19997;51.274;22.506;2023-01-26T12:27:14;5.70;75.90
33655;DHT22;19997;51.274;22.506;2023-01-26T12:29:48;5.70;76.40
33655;DHT22;19997;51.274;22.506;2023-01-26T12:32:17;5.60;75.20
33655;DHT22;19997;51.274;22.506;2023-01-26T12:34:45;5.60;75.60
33655;DHT22;19997;51.274;22.506;2023-01-26T12:37:28;5.60;75.60
33655;DHT22;19997;51.274;22.506;2023-01-26T12:40:04;5.60;75.70
33655;DHT22;19997;51.274;22.506;2023-01-26T12:42:42;5.60;75.70
33655;DHT22;19997;51.274;22.506;2023-01-26T12:45:16;5.60;75.80
33655;DHT22;19997;51.274;22.506;2023-01-26T12:47:47;5.60;75.70
33655;DHT22;19997;51.274;22.506;2023-01-26T12:50:25;5.50;75.40
33655;DHT22;19997;51.274;22.506;2023-01-26T12:52:58;5.50;75.10
33655;DHT22;19997;51.274;22.506;2023-01-26T12:55:31;5.40;75.40
33655;DHT22;19997;51.274;22.506;2023-01-26T12:58:02;5.30;75.70
33655;DHT22;19997;51.274;22.506;2023-01-26T13:00:33;5.20;75.40
33655;DHT22;19997;51.274;22.506;2023-01-26T13:03:04;5.10;75.50
33655;DHT22;19997;51.274;22.506;2023-01-26T13:05:35;5.00;75.50
33655;DHT22;19997;51.274;22.506;2023-01-26T13:08:45;4.90;75.80
33655;DHT22;19997;51.274;22.506;2023-01-26T13:11:40;4.90;76.10
33655;DHT22;19997;51.274;22.506;2023-01-26T13:14:26;4.80;76.80
33655;DHT22;19997;51.274;22.506;2023-01-26T13:16:54;4.80;76.40
33655;DHT22;19997;51.274;22.506;2023-01-26T13:19:35;4.80;76.60
33655;DHT22;19997;51.274;22.506;2023-01-26T13:22:38;4.70;76.60
33655;DHT22;19997;51.274;22.506;2023-01-26T13:25:16;4.60;76.50
33655;DHT22;19997;51.274;22.506;2023-01-26T13:27:46;4.60;76.70
33655;DHT22;19997;51.274;22.506;2023-01-26T13:30:42;4.60;76.80
33655;DHT22;19997;51.274;22.506;2023-01-26T13:33:20;4.50;76.90
33655;DHT22;19997;51.274;22.506;2023-01-26T13:35:50;4.50;77.00
33655;DHT22;19997;51.274;22.506;2023-01-26T13:38:26;4.50;77.20
33655;DHT22;19997;51.274;22.506;2023-01-26T13:40:54;4.50;77.40
33655;DHT22;19997;51.274;22.506;2023-01-26T13:43:28;4.40;77.40
33655;DHT22;19997;51.274;22.506;2023-01-26T13:46:14;4.40;77.40
33655;DHT22;19997;51.274;22.506;2023-01-26T13:48:45;4.40;78.40
33655;DHT22;19997;51.274;22.506;2023-01-26T13:51:15;4.40;77.80
33655;DHT22;19997;51.274;22.506;2023-01-26T13:53:47;4.40;78.00
33655;DHT22;19997;51.274;22.506;2023-01-26T13:56:24;4.30;78.10
33655;DHT22;19997;51.274;22.506;2023-01-26T13:58:51;4.30;78.20
33655;DHT22;19997;51.274;22.506;2023-01-26T14:01:22;4.30;78.30
33655;DHT22;19997;51.274;22.506;2023-01-26T14:04:02;4.20;78.30
33655;DHT22;19997;51.274;22.506;2023-01-26T14:06:29;4.20;78.50
33655;DHT22;19997;51.274;22.506;2023-01-26T14:08:58;4.20;78.60
33655;DHT22;19997;51.274;22.506;2023-01-26T14:11:28;4.20;78.80
33655;DHT22;19997;51.274;22.506;2023-01-26T14:13:58;4.10;78.90
33655;DHT22;19997;51.274;22.506;2023-01-26T14:16:29;4.10;79.10
33655;DHT22;19997;51.274;22.506;2023-01-26T14:19:03;4.10;79.10
33655;DHT22;19997;51.274;22.506;2023-01-26T14:21:32;4.10;79.30
33655;DHT22;19997;51.274;22.506;2023-01-26T14:24:00;4.20;79.10
33655;DHT22;19997;51.274;22.506;2023-01-26T14:26:30;4.10;79.10
33655;DHT22;19997;51.274;22.506;2023-01-26T14:28:59;4.10;79.10
33655;DHT22;19997;51.274;22.506;2023-01-26T14:31:28;4.00;79.00
33655;DHT22;19997;51.274;22.506;2023-01-26T14:33:57;4.00;79.30
33655;DHT22;19997;51.274;22.506;2023-01-26T14:36:26;3.90;79.40
33655;DHT22;19997;51.274;22.506;2023-01-26T14:38:55;3.80;79.60
33655;DHT22;19997;51.274;22.506;2023-01-26T14:41:24;3.80;79.80
33655;DHT22;19997;51.274;22.506;2023-01-26T14:43:55;3.70;80.00
33655;DHT22;19997;51.274;22.506;2023-01-26T14:46:24;3.60;80.10
33655;DHT22;19997;51.274;22.506;2023-01-26T14:48:57;3.60;80.30
33655;DHT22;19997;51.274;22.506;2023-01-26T14:51:26;3.60;81.20
33655;DHT22;19997;51.274;22.506;2023-01-26T14:53:56;3.50;80.60
33655;DHT22;19997;51.274;22.506;2023-01-26T14:56:28;3.50;80.80
33655;DHT22;19997;51.274;22.506;2023-01-26T14:58:57;3.50;81.00
33655;DHT22;19997;51.274;22.506;2023-01-26T15:01:25;3.50;80.90
33655;DHT22;19997;51.274;22.506;2023-01-26T15:03:58;3.50;81.00
33655;DHT22;19997;51.274;22.506;2023-01-26T15:06:27;3.40;81.00
33655;DHT22;19997;51.274;22.506;2023-01-26T15:09:00;3.40;81.10
33655;DHT22;19997;51.274;22.506;2023-01-26T15:11:37;3.40;81.40
33655;DHT22;19997;51.274;22.506;2023-01-26T15:14:44;3.40;81.60
33655;DHT22;19997;51.274;22.506;2023-01-26T15:17:27;3.30;81.70
33655;DHT22;19997;51.274;22.506;2023-01-26T15:19:54;3.30;81.90
33655;DHT22;19997;51.274;22.506;2023-01-26T15:22:23;3.30;82.00
33655;DHT22;19997;51.274;22.506;2023-01-26T15:25:15;3.30;82.10
33655;DHT22;19997;51.274;22.506;2023-01-26T15:27:48;3.30;82.20
33655;DHT22;19997;51.274;22.506;2023-01-26T15:30:20;3.20;82.10
33655;DHT22;19997;51.274;22.506;2023-01-26T15:32:49;3.20;82.30
33655;DHT22;19997;51.274;22.506;2023-01-26T15:35:24;3.20;82.40
33655;DHT22;19997;51.274;22.506;2023-01-26T15:38:01;3.20;82.50
33655;DHT22;19997;51.274;22.506;2023-01-26T15:40:29;3.20;82.60
33655;DHT22;19997;51.274;22.506;2023-01-26T15:43:14;3.20;82.80
33655;DHT22;19997;51.274;22.506;2023-01-26T15:45:48;3.20;82.80
33655;DHT22;19997;51.274;22.506;2023-01-26T15:48:16;3.20;82.90
33655;DHT22;19997;51.274;22.506;2023-01-26T15:50:45;3.20;82.90
33655;DHT22;19997;51.274;22.506;2023-01-26T15:53:13;3.20;82.90
33655;DHT22;19997;51.274;22.506;2023-01-26T15:55:41;3.20;83.00
33655;DHT22;19997;51.274;22.506;2023-01-26T15:58:08;3.20;83.10
33655;DHT22;19997;51.274;22.506;2023-01-26T16:00:38;3.20;83.20
33655;DHT22;19997;51.274;22.506;2023-01-26T16:03:10;3.10;83.20
33655;DHT22;19997;51.274;22.506;2023-01-26T16:05:38;3.10;83.20
33655;DHT22;19997;51.274;22.506;2023-01-26T16:08:05;3.20;83.30
33655;DHT22;19997;51.274;22.506;2023-01-26T16:10:32;3.20;83.30